sensor_id;sensor_type;location;lat;lon;timestamp;P1;durP1;ratioP1;P2;durP2;ratioP2
8042;SDS011;4064;48.132;11.366;2022-11-14T00:00:12;35.33;;;14.13;;
8042;SDS011;4064;48.132;11.366;2022-11-14T00:02:39;38.05;;;13.68;;
8042;SDS011;4064;48.132;11.366;2022-11-14T00:05:05;40.13;;;14.37;;
8042;SDS011;4064;48.132;11.366;2022-11-14T00:07:32;46.15;;;13.25;;
8042;SDS011;4064;48.132;11.366;2022-11-14T00:09:58;30.75;;;13.95;;
8042;SDS011;4064;48.132;11.366;2022-11-14T00:12:24;70.77;;;13.17;;
8042;SDS011;4064;48.132;11.366;2022-11-14T00:14:50;27.13;;;11.63;;
8042;SDS011;4064;48.132;11.366;2022-11-14T00:17:19;27.47;;;11.20;;
8042;SDS011;4064;48.132;11.366;2022-11-14T00:19:44;30.77;;;11.10;;
8042;SDS011;4064;48.132;11.366;2022-11-14T00:22:10;34.97;;;11.83;;
8042;SDS011;4064;48.132;11.366;2022-11-14T00:24:35;41.83;;;12.87;;
8042;SDS011;4064;48.132;11.366;2022-11-14T00:27:01;33.30;;;11.70;;
8042;SDS011;4064;48.132;11.366;2022-11-14T00:29:27;66.27;;;13.57;;
8042;SDS011;4064;48.132;11.366;2022-11-14T00:31:52;50.07;;;13.10;;
8042;SDS011;4064;48.132;11.366;2022-11-14T00:34:18;72.93;;;12.80;;
8042;SDS011;4064;48.132;11.366;2022-11-14T00:36:44;69.40;;;13.93;;
8042;SDS011;4064;48.132;11.366;2022-11-14T00:39:13;32.83;;;10.80;;
8042;SDS011;4064;48.132;11.366;2022-11-14T00:41:39;87.70;;;13.95;;
8042;SDS011;4064;48.132;11.366;2022-11-14T00:44:05;67.25;;;13.35;;
8042;SDS011;4064;48.132;11.366;2022-11-14T00:46:31;75.50;;;12.93;;
8042;SDS011;4064;48.132;11.366;2022-11-14T00:48:57;42.28;;;12.02;;
8042;SDS011;4064;48.132;11.366;2022-11-14T00:51:23;84.50;;;13.47;;
8042;SDS011;4064;48.132;11.366;2022-11-14T00:53:48;48.00;;;12.60;;
8042;SDS011;4064;48.132;11.366;2022-11-14T00:56:14;50.87;;;11.33;;
8042;SDS011;4064;48.132;11.366;2022-11-14T00:58:39;78.00;;;12.00;;
8042;SDS011;4064;48.132;11.366;2022-11-14T01:01:05;71.67;;;13.30;;
8042;SDS011;4064;48.132;11.366;2022-11-14T01:03:31;52.43;;;11.57;;
8042;SDS011;4064;48.132;11.366;2022-11-14T01:06:02;57.33;;;11.52;;
8042;SDS011;4064;48.132;11.366;2022-11-14T01:08:30;61.60;;;12.77;;
8042;SDS011;4064;48.132;11.366;2022-11-14T01:10:56;30.93;;;10.67;;
8042;SDS011;4064;48.132;11.366;2022-11-14T01:13:21;27.77;;;8.83;;
8042;SDS011;4064;48.132;11.366;2022-11-14T01:15:47;19.40;;;8.77;;
8042;SDS011;4064;48.132;11.366;2022-11-14T01:18:15;16.80;;;9.43;;
8042;SDS011;4064;48.132;11.366;2022-11-14T01:20:42;31.90;;;10.13;;
8042;SDS011;4064;48.132;11.366;2022-11-14T01:23:09;30.50;;;10.43;;
8042;SDS011;4064;48.132;11.366;2022-11-14T01:25:36;24.17;;;9.68;;
8042;SDS011;4064;48.132;11.366;2022-11-14T01:28:10;31.20;;;10.55;;
8042;SDS011;4064;48.132;11.366;2022-11-14T01:30:37;16.58;;;8.63;;
8042;SDS011;4064;48.132;11.366;2022-11-14T01:33:04;21.08;;;9.65;;
8042;SDS011;4064;48.132;11.366;2022-11-14T01:35:30;16.73;;;9.55;;
8042;SDS011;4064;48.132;11.366;2022-11-14T01:37:57;18.20;;;8.98;;
8042;SDS011;4064;48.132;11.366;2022-11-14T01:40:23;23.73;;;9.00;;
8042;SDS011;4064;48.132;11.366;2022-11-14T01:45:49;21.00;;;8.70;;
8042;SDS011;4064;48.132;11.366;2022-11-14T01:48:21;18.38;;;8.10;;
8042;SDS011;4064;48.132;11.366;2022-11-14T01:50:50;23.67;;;7.97;;
8042;SDS011;4064;48.132;11.366;2022-11-14T01:53:21;11.45;;;7.45;;
8042;SDS011;4064;48.132;11.366;2022-11-14T01:55:46;12.33;;;7.07;;
8042;SDS011;4064;48.132;11.366;2022-11-14T01:58:12;8.57;;;7.50;;
8042;SDS011;4064;48.132;11.366;2022-11-14T02:00:39;15.00;;;7.55;;
8042;SDS011;4064;48.132;11.366;2022-11-14T02:03:06;9.30;;;6.88;;
8042;SDS011;4064;48.132;11.366;2022-11-14T02:05:31;14.50;;;7.57;;
8042;SDS011;4064;48.132;11.366;2022-11-14T02:07:57;28.75;;;8.80;;
8042;SDS011;4064;48.132;11.366;2022-11-14T02:10:23;17.70;;;8.30;;
8042;SDS011;4064;48.132;11.366;2022-11-14T02:12:49;10.27;;;7.50;;
8042;SDS011;4064;48.132;11.366;2022-11-14T02:15:15;10.85;;;7.40;;
8042;SDS011;4064;48.132;11.366;2022-11-14T02:17:41;10.20;;;7.50;;
8042;SDS011;4064;48.132;11.366;2022-11-14T02:22:34;7.33;;;6.60;;
8042;SDS011;4064;48.132;11.366;2022-11-14T02:25:00;16.73;;;8.00;;
8042;SDS011;4064;48.132;11.366;2022-11-14T02:27:26;12.53;;;7.50;;
8042;SDS011;4064;48.132;11.366;2022-11-14T02:29:52;11.70;;;6.87;;
8042;SDS011;4064;48.132;11.366;2022-11-14T02:32:17;8.27;;;7.30;;
8042;SDS011;4064;48.132;11.366;2022-11-14T02:34:43;9.03;;;8.13;;
8042;SDS011;4064;48.132;11.366;2022-11-14T02:37:08;11.40;;;8.27;;
8042;SDS011;4064;48.132;11.366;2022-11-14T02:39:34;9.23;;;7.60;;
8042;SDS011;4064;48.132;11.366;2022-11-14T02:42:00;12.93;;;7.30;;
8042;SDS011;4064;48.132;11.366;2022-11-14T02:44:25;10.07;;;7.73;;
8042;SDS011;4064;48.132;11.366;2022-11-14T02:46:51;10.00;;;7.00;;
8042;SDS011;4064;48.132;11.366;2022-11-14T02:49:17;9.30;;;8.10;;
8042;SDS011;4064;48.132;11.366;2022-11-14T02:51:42;8.87;;;8.07;;
8042;SDS011;4064;48.132;11.366;2022-11-14T02:54:10;8.00;;;6.83;;
8042;SDS011;4064;48.132;11.366;2022-11-14T02:56:36;9.00;;;8.10;;
8042;SDS011;4064;48.132;11.366;2022-11-14T02:59:02;9.33;;;8.37;;
8042;SDS011;4064;48.132;11.366;2022-11-14T03:01:28;7.50;;;6.80;;
8042;SDS011;4064;48.132;11.366;2022-11-14T03:03:54;8.83;;;7.57;;
8042;SDS011;4064;48.132;11.366;2022-11-14T03:06:19;8.10;;;7.30;;
8042;SDS011;4064;48.132;11.366;2022-11-14T03:08:45;7.40;;;6.77;;
8042;SDS011;4064;48.132;11.366;2022-11-14T03:11:10;7.10;;;6.43;;
8042;SDS011;4064;48.132;11.366;2022-11-14T03:13:36;7.97;;;7.27;;
8042;SDS011;4064;48.132;11.366;2022-11-14T03:16:05;8.53;;;7.73;;
8042;SDS011;4064;48.132;11.366;2022-11-14T03:18:32;7.80;;;7.20;;
8042;SDS011;4064;48.132;11.366;2022-11-14T03:21:03;7.15;;;6.45;;
8042;SDS011;4064;48.132;11.366;2022-11-14T03:23:36;7.80;;;7.10;;
8042;SDS011;4064;48.132;11.366;2022-11-14T03:26:03;6.33;;;5.83;;
8042;SDS011;4064;48.132;11.366;2022-11-14T03:28:30;7.88;;;7.18;;
8042;SDS011;4064;48.132;11.366;2022-11-14T03:30:56;6.47;;;5.87;;
8042;SDS011;4064;48.132;11.366;2022-11-14T03:33:22;8.40;;;7.53;;
8042;SDS011;4064;48.132;11.366;2022-11-14T03:35:50;7.78;;;7.13;;
8042;SDS011;4064;48.132;11.366;2022-11-14T03:38:17;7.75;;;6.60;;
8042;SDS011;4064;48.132;11.366;2022-11-14T03:40:43;8.43;;;7.57;;
8042;SDS011;4064;48.132;11.366;2022-11-14T03:43:08;6.70;;;6.20;;
8042;SDS011;4064;48.132;11.366;2022-11-14T03:45:37;7.87;;;7.10;;
8042;SDS011;4064;48.132;11.366;2022-11-14T03:48:04;7.00;;;6.40;;
8042;SDS011;4064;48.132;11.366;2022-11-14T03:50:30;7.03;;;6.35;;
8042;SDS011;4064;48.132;11.366;2022-11-14T03:52:56;8.07;;;7.00;;
8042;SDS011;4064;48.132;11.366;2022-11-14T03:55:22;7.13;;;6.53;;
8042;SDS011;4064;48.132;11.366;2022-11-14T03:57:47;7.63;;;6.93;;
8042;SDS011;4064;48.132;11.366;2022-11-14T04:00:13;7.87;;;6.90;;
8042;SDS011;4064;48.132;11.366;2022-11-14T04:02:39;7.93;;;7.22;;
8042;SDS011;4064;48.132;11.366;2022-11-14T04:05:05;8.43;;;7.63;;
8042;SDS011;4064;48.132;11.366;2022-11-14T04:07:31;7.15;;;6.50;;
8042;SDS011;4064;48.132;11.366;2022-11-14T04:09:56;7.97;;;7.27;;
8042;SDS011;4064;48.132;11.366;2022-11-14T04:12:22;7.60;;;6.83;;
8042;SDS011;4064;48.132;11.366;2022-11-14T04:14:47;7.97;;;7.17;;
8042;SDS011;4064;48.132;11.366;2022-11-14T04:17:13;6.67;;;6.10;;
8042;SDS011;4064;48.132;11.366;2022-11-14T04:19:39;8.47;;;7.77;;
8042;SDS011;4064;48.132;11.366;2022-11-14T04:22:04;7.50;;;6.80;;
8042;SDS011;4064;48.132;11.366;2022-11-14T04:24:30;8.63;;;7.70;;
8042;SDS011;4064;48.132;11.366;2022-11-14T04:26:55;6.80;;;6.20;;
8042;SDS011;4064;48.132;11.366;2022-11-14T04:29:21;8.10;;;7.30;;
8042;SDS011;4064;48.132;11.366;2022-11-14T04:31:47;6.60;;;5.97;;
8042;SDS011;4064;48.132;11.366;2022-11-14T04:34:13;7.50;;;6.80;;
8042;SDS011;4064;48.132;11.366;2022-11-14T04:36:38;6.67;;;6.13;;
8042;SDS011;4064;48.132;11.366;2022-11-14T04:39:04;10.30;;;9.40;;
8042;SDS011;4064;48.132;11.366;2022-11-14T04:41:29;9.20;;;8.30;;
8042;SDS011;4064;48.132;11.366;2022-11-14T04:43:55;8.37;;;7.53;;
8042;SDS011;4064;48.132;11.366;2022-11-14T04:46:20;8.17;;;7.37;;
8042;SDS011;4064;48.132;11.366;2022-11-14T04:48:46;8.80;;;8.00;;
8042;SDS011;4064;48.132;11.366;2022-11-14T04:51:12;8.13;;;7.37;;
8042;SDS011;4064;48.132;11.366;2022-11-14T04:53:38;8.87;;;8.07;;
8042;SDS011;4064;48.132;11.366;2022-11-14T04:56:04;8.03;;;7.30;;
8042;SDS011;4064;48.132;11.366;2022-11-14T04:58:29;8.43;;;7.40;;
8042;SDS011;4064;48.132;11.366;2022-11-14T05:00:55;11.07;;;8.47;;
8042;SDS011;4064;48.132;11.366;2022-11-14T05:03:24;7.82;;;7.03;;
8042;SDS011;4064;48.132;11.366;2022-11-14T05:05:50;9.13;;;8.33;;
8042;SDS011;4064;48.132;11.366;2022-11-14T05:08:17;10.20;;;8.45;;
8042;SDS011;4064;48.132;11.366;2022-11-14T05:10:43;7.87;;;7.10;;
8042;SDS011;4064;48.132;11.366;2022-11-14T05:13:10;9.90;;;8.20;;
8042;SDS011;4064;48.132;11.366;2022-11-14T05:15:36;9.05;;;8.25;;
8042;SDS011;4064;48.132;11.366;2022-11-14T05:18:02;27.53;;;9.33;;
8042;SDS011;4064;48.132;11.366;2022-11-14T05:20:28;7.18;;;6.47;;
8042;SDS011;4064;48.132;11.366;2022-11-14T05:22:54;30.27;;;7.77;;
8042;SDS011;4064;48.132;11.366;2022-11-14T05:25:21;10.05;;;7.60;;
8042;SDS011;4064;48.132;11.366;2022-11-14T05:27:47;55.35;;;9.73;;
8042;SDS011;4064;48.132;11.366;2022-11-14T05:30:13;22.83;;;9.40;;
8042;SDS011;4064;48.132;11.366;2022-11-14T05:32:39;27.67;;;7.53;;
8042;SDS011;4064;48.132;11.366;2022-11-14T05:35:05;26.63;;;8.10;;
8042;SDS011;4064;48.132;11.366;2022-11-14T05:37:32;13.57;;;7.85;;
8042;SDS011;4064;48.132;11.366;2022-11-14T05:39:59;40.90;;;9.13;;
8042;SDS011;4064;48.132;11.366;2022-11-14T05:42:26;44.80;;;10.40;;
8042;SDS011;4064;48.132;11.366;2022-11-14T05:44:52;51.00;;;9.55;;
8042;SDS011;4064;48.132;11.366;2022-11-14T05:47:18;30.17;;;10.27;;
8042;SDS011;4064;48.132;11.366;2022-11-14T05:49:43;46.43;;;10.20;;
8042;SDS011;4064;48.132;11.366;2022-11-14T05:52:09;42.97;;;10.60;;
8042;SDS011;4064;48.132;11.366;2022-11-14T05:54:35;42.70;;;10.67;;
8042;SDS011;4064;48.132;11.366;2022-11-14T05:57:01;36.07;;;9.70;;
8042;SDS011;4064;48.132;11.366;2022-11-14T05:59:26;56.87;;;11.40;;
8042;SDS011;4064;48.132;11.366;2022-11-14T06:01:52;35.30;;;10.77;;
8042;SDS011;4064;48.132;11.366;2022-11-14T06:04:18;41.93;;;10.00;;
8042;SDS011;4064;48.132;11.366;2022-11-14T06:06:44;33.07;;;9.70;;
8042;SDS011;4064;48.132;11.366;2022-11-14T06:09:10;19.60;;;8.20;;
8042;SDS011;4064;48.132;11.366;2022-11-14T06:11:35;13.43;;;7.63;;
8042;SDS011;4064;48.132;11.366;2022-11-14T06:14:01;22.43;;;8.20;;
8042;SDS011;4064;48.132;11.366;2022-11-14T06:16:27;8.77;;;7.80;;
8042;SDS011;4064;48.132;11.366;2022-11-14T06:18:53;19.33;;;9.45;;
8042;SDS011;4064;48.132;11.366;2022-11-14T06:21:20;9.23;;;8.10;;
8042;SDS011;4064;48.132;11.366;2022-11-14T06:23:47;10.05;;;6.95;;
8042;SDS011;4064;48.132;11.366;2022-11-14T06:26:15;9.50;;;6.80;;
8042;SDS011;4064;48.132;11.366;2022-11-14T06:28:48;10.48;;;7.80;;
8042;SDS011;4064;48.132;11.366;2022-11-14T06:31:16;9.65;;;6.72;;
8042;SDS011;4064;48.132;11.366;2022-11-14T06:33:42;7.55;;;6.85;;
8042;SDS011;4064;48.132;11.366;2022-11-14T06:36:08;8.83;;;7.97;;
8042;SDS011;4064;48.132;11.366;2022-11-14T06:38:38;8.75;;;7.75;;
8042;SDS011;4064;48.132;11.366;2022-11-14T06:41:06;8.65;;;7.80;;
8042;SDS011;4064;48.132;11.366;2022-11-14T06:43:41;7.90;;;7.10;;
8042;SDS011;4064;48.132;11.366;2022-11-14T06:46:09;8.60;;;7.55;;
8042;SDS011;4064;48.132;11.366;2022-11-14T06:48:36;9.32;;;7.13;;
8042;SDS011;4064;48.132;11.366;2022-11-14T06:51:02;8.70;;;7.45;;
8042;SDS011;4064;48.132;11.366;2022-11-14T06:53:30;8.02;;;7.22;;
8042;SDS011;4064;48.132;11.366;2022-11-14T06:56:07;8.35;;;7.30;;
8042;SDS011;4064;48.132;11.366;2022-11-14T06:58:35;7.95;;;7.03;;
8042;SDS011;4064;48.132;11.366;2022-11-14T07:01:06;8.00;;;7.20;;
8042;SDS011;4064;48.132;11.366;2022-11-14T07:03:34;7.45;;;6.75;;
8042;SDS011;4064;48.132;11.366;2022-11-14T07:06:00;9.50;;;7.47;;
8042;SDS011;4064;48.132;11.366;2022-11-14T07:08:27;7.82;;;6.60;;
8042;SDS011;4064;48.132;11.366;2022-11-14T07:10:53;8.13;;;7.35;;
8042;SDS011;4064;48.132;11.366;2022-11-14T07:13:24;10.05;;;6.32;;
8042;SDS011;4064;48.132;11.366;2022-11-14T07:15:50;7.53;;;6.70;;
8042;SDS011;4064;48.132;11.366;2022-11-14T07:18:17;9.70;;;7.05;;
8042;SDS011;4064;48.132;11.366;2022-11-14T07:20:44;7.47;;;6.25;;
8042;SDS011;4064;48.132;11.366;2022-11-14T07:23:10;11.75;;;8.07;;
8042;SDS011;4064;48.132;11.366;2022-11-14T07:25:36;9.83;;;8.93;;
8042;SDS011;4064;48.132;11.366;2022-11-14T07:28:01;11.47;;;8.20;;
8042;SDS011;4064;48.132;11.366;2022-11-14T07:30:27;22.90;;;8.50;;
8042;SDS011;4064;48.132;11.366;2022-11-14T07:32:54;12.33;;;8.83;;
8042;SDS011;4064;48.132;11.366;2022-11-14T07:35:20;12.25;;;9.85;;
8042;SDS011;4064;48.132;11.366;2022-11-14T07:37:46;9.88;;;8.70;;
8042;SDS011;4064;48.132;11.366;2022-11-14T07:40:12;11.87;;;9.00;;
8042;SDS011;4064;48.132;11.366;2022-11-14T07:42:38;9.37;;;8.47;;
8042;SDS011;4064;48.132;11.366;2022-11-14T07:45:04;10.07;;;9.03;;
8042;SDS011;4064;48.132;11.366;2022-11-14T07:47:30;11.02;;;8.55;;
8042;SDS011;4064;48.132;11.366;2022-11-14T07:49:56;36.93;;;8.83;;
8042;SDS011;4064;48.132;11.366;2022-11-14T07:52:21;10.83;;;7.80;;
8042;SDS011;4064;48.132;11.366;2022-11-14T07:54:47;8.13;;;7.33;;
8042;SDS011;4064;48.132;11.366;2022-11-14T07:57:13;7.40;;;6.60;;
8042;SDS011;4064;48.132;11.366;2022-11-14T07:59:39;7.20;;;6.53;;
8042;SDS011;4064;48.132;11.366;2022-11-14T08:02:05;7.40;;;6.70;;
8042;SDS011;4064;48.132;11.366;2022-11-14T08:04:31;7.88;;;7.10;;
8042;SDS011;4064;48.132;11.366;2022-11-14T08:06:56;7.67;;;6.90;;
8042;SDS011;4064;48.132;11.366;2022-11-14T08:09:22;7.00;;;6.23;;
8042;SDS011;4064;48.132;11.366;2022-11-14T08:11:48;7.37;;;6.67;;
8042;SDS011;4064;48.132;11.366;2022-11-14T08:14:14;6.83;;;6.23;;
8042;SDS011;4064;48.132;11.366;2022-11-14T08:16:40;6.18;;;5.68;;
8042;SDS011;4064;48.132;11.366;2022-11-14T08:19:06;6.47;;;5.30;;
8042;SDS011;4064;48.132;11.366;2022-11-14T08:21:32;6.70;;;6.10;;
8042;SDS011;4064;48.132;11.366;2022-11-14T08:23:58;6.30;;;5.70;;
8042;SDS011;4064;48.132;11.366;2022-11-14T08:26:23;8.37;;;6.43;;
8042;SDS011;4064;48.132;11.366;2022-11-14T08:28:52;6.20;;;5.50;;
8042;SDS011;4064;48.132;11.366;2022-11-14T08:31:19;4.73;;;4.33;;
8042;SDS011;4064;48.132;11.366;2022-11-14T08:33:45;6.43;;;4.80;;
8042;SDS011;4064;48.132;11.366;2022-11-14T08:36:13;4.50;;;4.10;;
8042;SDS011;4064;48.132;11.366;2022-11-14T08:38:39;6.50;;;4.13;;
8042;SDS011;4064;48.132;11.366;2022-11-14T08:41:05;5.07;;;4.20;;
8042;SDS011;4064;48.132;11.366;2022-11-14T08:43:31;4.37;;;3.97;;
8042;SDS011;4064;48.132;11.366;2022-11-14T08:45:58;4.17;;;3.80;;
8042;SDS011;4064;48.132;11.366;2022-11-14T08:48:25;5.00;;;4.50;;
8042;SDS011;4064;48.132;11.366;2022-11-14T08:50:51;4.10;;;3.80;;
8042;SDS011;4064;48.132;11.366;2022-11-14T08:53:17;5.10;;;4.00;;
8042;SDS011;4064;48.132;11.366;2022-11-14T08:55:44;4.80;;;4.50;;
8042;SDS011;4064;48.132;11.366;2022-11-14T08:58:10;4.80;;;4.40;;
8042;SDS011;4064;48.132;11.366;2022-11-14T09:00:36;5.00;;;4.50;;
8042;SDS011;4064;48.132;11.366;2022-11-14T09:03:09;4.73;;;4.23;;
8042;SDS011;4064;48.132;11.366;2022-11-14T09:05:40;4.40;;;4.00;;
8042;SDS011;4064;48.132;11.366;2022-11-14T09:08:06;4.07;;;3.67;;
8042;SDS011;4064;48.132;11.366;2022-11-14T09:10:32;9.00;;;7.20;;
8042;SDS011;4064;48.132;11.366;2022-11-14T09:12:59;8.20;;;7.50;;
8042;SDS011;4064;48.132;11.366;2022-11-14T09:15:26;7.83;;;7.07;;
8042;SDS011;4064;48.132;11.366;2022-11-14T09:17:53;9.07;;;8.17;;
8042;SDS011;4064;48.132;11.366;2022-11-14T09:20:19;8.90;;;7.70;;
8042;SDS011;4064;48.132;11.366;2022-11-14T09:22:46;7.57;;;6.90;;
8042;SDS011;4064;48.132;11.366;2022-11-14T09:25:12;8.57;;;7.40;;
8042;SDS011;4064;48.132;11.366;2022-11-14T09:27:37;8.10;;;7.40;;
8042;SDS011;4064;48.132;11.366;2022-11-14T09:30:03;9.90;;;7.13;;
8042;SDS011;4064;48.132;11.366;2022-11-14T09:32:30;7.93;;;7.23;;
8042;SDS011;4064;48.132;11.366;2022-11-14T09:34:55;8.17;;;7.07;;
8042;SDS011;4064;48.132;11.366;2022-11-14T09:37:21;9.23;;;7.43;;
8042;SDS011;4064;48.132;11.366;2022-11-14T09:39:47;10.23;;;8.87;;
8042;SDS011;4064;48.132;11.366;2022-11-14T09:45:15;10.83;;;9.77;;
8042;SDS011;4064;48.132;11.366;2022-11-14T09:50:10;13.83;;;9.67;;
8042;SDS011;4064;48.132;11.366;2022-11-14T09:52:46;11.53;;;10.53;;
8042;SDS011;4064;48.132;11.366;2022-11-14T09:55:21;8.60;;;7.73;;
8042;SDS011;4064;48.132;11.366;2022-11-14T09:57:51;9.90;;;9.00;;
8042;SDS011;4064;48.132;11.366;2022-11-14T10:00:18;10.53;;;9.43;;
8042;SDS011;4064;48.132;11.366;2022-11-14T10:05:34;10.37;;;9.37;;
8042;SDS011;4064;48.132;11.366;2022-11-14T10:08:14;10.63;;;9.63;;
8042;SDS011;4064;48.132;11.366;2022-11-14T10:13:35;11.07;;;9.97;;
8042;SDS011;4064;48.132;11.366;2022-11-14T10:16:24;9.90;;;9.00;;
8042;SDS011;4064;48.132;11.366;2022-11-14T10:27:14;11.63;;;9.13;;
8042;SDS011;4064;48.132;11.366;2022-11-14T10:35:18;11.60;;;10.50;;
8042;SDS011;4064;48.132;11.366;2022-11-14T10:40:35;16.00;;;10.97;;
8042;SDS011;4064;48.132;11.366;2022-11-14T10:45:45;13.20;;;9.67;;
8042;SDS011;4064;48.132;11.366;2022-11-14T10:48:16;12.27;;;10.17;;
8042;SDS011;4064;48.132;11.366;2022-11-14T10:50:57;11.50;;;10.30;;
8042;SDS011;4064;48.132;11.366;2022-11-14T10:56:49;10.50;;;9.40;;
8042;SDS011;4064;48.132;11.366;2022-11-14T10:59:16;10.00;;;9.00;;
8042;SDS011;4064;48.132;11.366;2022-11-14T11:06:51;9.70;;;8.80;;
8042;SDS011;4064;48.132;11.366;2022-11-14T11:09:22;10.00;;;9.00;;
8042;SDS011;4064;48.132;11.366;2022-11-14T11:12:09;10.07;;;9.17;;
8042;SDS011;4064;48.132;11.366;2022-11-14T11:14:41;10.40;;;9.40;;
8042;SDS011;4064;48.132;11.366;2022-11-14T11:19:37;9.53;;;8.60;;
8042;SDS011;4064;48.132;11.366;2022-11-14T11:22:04;10.30;;;9.30;;
8042;SDS011;4064;48.132;11.366;2022-11-14T11:24:47;10.50;;;8.70;;
8042;SDS011;4064;48.132;11.366;2022-11-14T11:29:44;10.53;;;7.60;;
8042;SDS011;4064;48.132;11.366;2022-11-14T11:32:11;8.50;;;7.73;;
8042;SDS011;4064;48.132;11.366;2022-11-14T11:34:50;10.20;;;8.63;;
8042;SDS011;4064;48.132;11.366;2022-11-14T11:37:23;9.23;;;8.30;;
8042;SDS011;4064;48.132;11.366;2022-11-14T11:40:15;8.70;;;7.90;;
8042;SDS011;4064;48.132;11.366;2022-11-14T11:43:03;8.10;;;7.40;;
8042;SDS011;4064;48.132;11.366;2022-11-14T11:45:36;8.47;;;7.67;;
8042;SDS011;4064;48.132;11.366;2022-11-14T11:48:21;7.20;;;6.60;;
8042;SDS011;4064;48.132;11.366;2022-11-14T11:50:51;8.00;;;7.20;;
8042;SDS011;4064;48.132;11.366;2022-11-14T11:53:23;8.17;;;7.40;;
8042;SDS011;4064;48.132;11.366;2022-11-14T11:55:58;7.17;;;6.50;;
8042;SDS011;4064;48.132;11.366;2022-11-14T11:58:39;7.97;;;7.23;;
8042;SDS011;4064;48.132;11.366;2022-11-14T12:01:19;8.53;;;6.60;;
8042;SDS011;4064;48.132;11.366;2022-11-14T12:03:46;5.90;;;5.40;;
8042;SDS011;4064;48.132;11.366;2022-11-14T12:06:18;7.00;;;5.90;;
8042;SDS011;4064;48.132;11.366;2022-11-14T12:08:59;7.23;;;6.63;;
8042;SDS011;4064;48.132;11.366;2022-11-14T12:11:26;6.93;;;5.60;;
8042;SDS011;4064;48.132;11.366;2022-11-14T12:14:06;6.23;;;5.73;;
8042;SDS011;4064;48.132;11.366;2022-11-14T12:19:28;6.13;;;5.53;;
8042;SDS011;4064;48.132;11.366;2022-11-14T12:30:45;5.93;;;5.43;;
8042;SDS011;4064;48.132;11.366;2022-11-14T12:35:50;6.10;;;5.60;;
8042;SDS011;4064;48.132;11.366;2022-11-14T12:38:21;5.50;;;4.40;;
8042;SDS011;4064;48.132;11.366;2022-11-14T12:40:52;5.27;;;4.73;;
8042;SDS011;4064;48.132;11.366;2022-11-14T12:43:34;4.77;;;4.40;;
8042;SDS011;4064;48.132;11.366;2022-11-14T12:46:05;4.90;;;4.50;;
8042;SDS011;4064;48.132;11.366;2022-11-14T12:48:42;4.77;;;4.43;;
8042;SDS011;4064;48.132;11.366;2022-11-14T12:51:51;5.20;;;4.80;;
8042;SDS011;4064;48.132;11.366;2022-11-14T12:53:58;6.47;;;5.97;;
8042;SDS011;4064;48.132;11.366;2022-11-14T13:01:56;7.40;;;6.70;;
8042;SDS011;4064;48.132;11.366;2022-11-14T13:07:31;6.13;;;5.43;;
8042;SDS011;4064;48.132;11.366;2022-11-14T13:10:30;5.97;;;5.37;;
8042;SDS011;4064;48.132;11.366;2022-11-14T13:13:11;7.40;;;6.57;;
8042;SDS011;4064;48.132;11.366;2022-11-14T13:15:58;6.53;;;5.93;;
8042;SDS011;4064;48.132;11.366;2022-11-14T13:18:53;6.27;;;5.67;;
8042;SDS011;4064;48.132;11.366;2022-11-14T13:27:30;5.90;;;5.40;;
8042;SDS011;4064;48.132;11.366;2022-11-14T13:29:57;6.97;;;5.97;;
8042;SDS011;4064;48.132;11.366;2022-11-14T13:43:19;5.83;;;5.33;;
8042;SDS011;4064;48.132;11.366;2022-11-14T13:52:03;6.00;;;5.50;;
8042;SDS011;4064;48.132;11.366;2022-11-14T13:54:29;6.10;;;5.60;;
8042;SDS011;4064;48.132;11.366;2022-11-14T14:13:23;6.03;;;5.53;;
8042;SDS011;4064;48.132;11.366;2022-11-14T14:19:12;6.37;;;5.67;;
8042;SDS011;4064;48.132;11.366;2022-11-14T14:30:14;7.37;;;6.67;;
8042;SDS011;4064;48.132;11.366;2022-11-14T14:32:39;6.20;;;5.60;;
8042;SDS011;4064;48.132;11.366;2022-11-14T14:35:21;8.13;;;5.97;;
8042;SDS011;4064;48.132;11.366;2022-11-14T14:37:50;7.10;;;6.40;;
8042;SDS011;4064;48.132;11.366;2022-11-14T14:40:33;6.53;;;6.03;;
8042;SDS011;4064;48.132;11.366;2022-11-14T14:43:00;6.10;;;5.40;;
8042;SDS011;4064;48.132;11.366;2022-11-14T14:45:29;5.90;;;5.30;;
8042;SDS011;4064;48.132;11.366;2022-11-14T14:48:13;7.67;;;6.97;;
8042;SDS011;4064;48.132;11.366;2022-11-14T14:51:13;6.90;;;5.87;;
8042;SDS011;4064;48.132;11.366;2022-11-14T14:53:36;5.73;;;5.20;;
8042;SDS011;4064;48.132;11.366;2022-11-14T14:56:06;8.57;;;6.10;;
8042;SDS011;4064;48.132;11.366;2022-11-14T14:58:41;7.00;;;5.87;;
8042;SDS011;4064;48.132;11.366;2022-11-14T15:01:41;6.43;;;5.83;;
8042;SDS011;4064;48.132;11.366;2022-11-14T15:04:01;6.33;;;4.90;;
8042;SDS011;4064;48.132;11.366;2022-11-14T15:06:33;5.50;;;5.00;;
8042;SDS011;4064;48.132;11.366;2022-11-14T15:09:12;7.17;;;5.40;;
8042;SDS011;4064;48.132;11.366;2022-11-14T15:11:43;8.03;;;6.10;;
8042;SDS011;4064;48.132;11.366;2022-11-14T15:14:15;9.20;;;7.27;;
8042;SDS011;4064;48.132;11.366;2022-11-14T15:16:45;8.63;;;6.77;;
8042;SDS011;4064;48.132;11.366;2022-11-14T15:19:14;8.30;;;6.93;;
8042;SDS011;4064;48.132;11.366;2022-11-14T15:21:43;8.43;;;6.73;;
8042;SDS011;4064;48.132;11.366;2022-11-14T15:26:34;8.30;;;6.37;;
8042;SDS011;4064;48.132;11.366;2022-11-14T15:31:49;10.80;;;7.60;;
8042;SDS011;4064;48.132;11.366;2022-11-14T15:34:26;7.47;;;6.70;;
8042;SDS011;4064;48.132;11.366;2022-11-14T15:39:34;10.27;;;8.30;;
8042;SDS011;4064;48.132;11.366;2022-11-14T15:42:10;62.57;;;46.10;;
8042;SDS011;4064;48.132;11.366;2022-11-14T15:44:38;56.70;;;50.67;;
8042;SDS011;4064;48.132;11.366;2022-11-14T15:47:09;21.23;;;18.73;;
8042;SDS011;4064;48.132;11.366;2022-11-14T15:49:59;12.57;;;10.10;;
8042;SDS011;4064;48.132;11.366;2022-11-14T15:52:37;9.03;;;8.13;;
8042;SDS011;4064;48.132;11.366;2022-11-14T15:55:13;7.27;;;6.57;;
8042;SDS011;4064;48.132;11.366;2022-11-14T15:57:40;7.37;;;6.23;;
8042;SDS011;4064;48.132;11.366;2022-11-14T16:00:10;9.27;;;6.33;;
8042;SDS011;4064;48.132;11.366;2022-11-14T16:02:40;9.10;;;5.50;;
8042;SDS011;4064;48.132;11.366;2022-11-14T16:05:11;6.93;;;6.20;;
8042;SDS011;4064;48.132;11.366;2022-11-14T16:07:38;6.43;;;5.83;;
8042;SDS011;4064;48.132;11.366;2022-11-14T16:10:12;7.33;;;5.90;;
8042;SDS011;4064;48.132;11.366;2022-11-14T16:12:42;10.73;;;6.50;;
8042;SDS011;4064;48.132;11.366;2022-11-14T16:15:08;8.03;;;6.00;;
8042;SDS011;4064;48.132;11.366;2022-11-14T16:17:42;7.00;;;5.70;;
8042;SDS011;4064;48.132;11.366;2022-11-14T16:20:12;8.07;;;6.07;;
8042;SDS011;4064;48.132;11.366;2022-11-14T16:22:43;6.10;;;5.50;;
8042;SDS011;4064;48.132;11.366;2022-11-14T16:25:23;6.43;;;5.57;;
8042;SDS011;4064;48.132;11.366;2022-11-14T16:27:50;6.97;;;5.97;;
8042;SDS011;4064;48.132;11.366;2022-11-14T16:30:16;6.00;;;5.23;;
8042;SDS011;4064;48.132;11.366;2022-11-14T16:32:44;6.70;;;6.03;;
8042;SDS011;4064;48.132;11.366;2022-11-14T16:35:12;6.67;;;5.80;;
8042;SDS011;4064;48.132;11.366;2022-11-14T16:37:40;11.30;;;6.00;;
8042;SDS011;4064;48.132;11.366;2022-11-14T16:40:06;7.37;;;6.40;;
8042;SDS011;4064;48.132;11.366;2022-11-14T16:42:51;7.80;;;5.77;;
8042;SDS011;4064;48.132;11.366;2022-11-14T16:45:18;7.03;;;5.43;;
8042;SDS011;4064;48.132;11.366;2022-11-14T16:47:44;5.90;;;5.30;;
8042;SDS011;4064;48.132;11.366;2022-11-14T16:50:11;8.00;;;5.70;;
8042;SDS011;4064;48.132;11.366;2022-11-14T16:52:36;8.33;;;6.10;;
8042;SDS011;4064;48.132;11.366;2022-11-14T16:55:06;7.00;;;5.30;;
8042;SDS011;4064;48.132;11.366;2022-11-14T16:57:34;6.20;;;5.30;;
8042;SDS011;4064;48.132;11.366;2022-11-14T17:00:07;8.17;;;6.87;;
8042;SDS011;4064;48.132;11.366;2022-11-14T17:02:34;7.23;;;6.37;;
8042;SDS011;4064;48.132;11.366;2022-11-14T17:05:00;7.70;;;6.40;;
8042;SDS011;4064;48.132;11.366;2022-11-14T17:07:26;8.20;;;7.20;;
8042;SDS011;4064;48.132;11.366;2022-11-14T17:09:56;11.77;;;7.50;;
8042;SDS011;4064;48.132;11.366;2022-11-14T17:12:22;9.10;;;7.83;;
8042;SDS011;4064;48.132;11.366;2022-11-14T17:14:47;8.17;;;7.47;;